sensor_id;sensor_type;location;lat;lon;timestamp;pressure;altitude;pressure_sealevel;temperature;humidity
14295;BME280;7231;59.370;18.016;2024-01-30T00:01:13;102347.63;;;3.69;100.00
14295;BME280;7231;59.370;18.016;2024-01-30T00:03:42;102346.47;;;3.65;100.00
14295;BME280;7231;59.370;18.016;2024-01-30T00:06:11;102335.72;;;3.61;100.00
14295;BME280;7231;59.370;18.016;2024-01-30T00:08:39;102337.03;;;3.55;100.00
14295;BME280;7231;59.370;18.016;2024-01-30T00:11:07;102348.75;;;3.50;100.00
14295;BME280;7231;59.370;18.016;2024-01-30T00:13:35;102335.94;;;3.42;100.00
14295;BME280;7231;59.370;18.016;2024-01-30T00:16:04;102348.00;;;3.41;100.00
14295;BME280;7231;59.370;18.016;2024-01-30T00:18:32;102357.22;;;3.38;100.00
14295;BME280;7231;59.370;18.016;2024-01-30T00:21:02;102355.16;;;3.34;100.00
14295;BME280;7231;59.370;18.016;2024-01-30T00:23:30;102349.09;;;3.23;100.00
14295;BME280;7231;59.370;18.016;2024-01-30T00:25:58;102352.59;;;3.23;100.00
14295;BME280;7231;59.370;18.016;2024-01-30T00:28:27;102357.41;;;3.19;100.00
14295;BME280;7231;59.370;18.016;2024-01-30T00:30:55;102344.84;;;3.13;100.00
14295;BME280;7231;59.370;18.016;2024-01-30T00:33:23;102352.75;;;3.15;100.00
14295;BME280;7231;59.370;18.016;2024-01-30T00:35:51;102355.88;;;3.11;100.00
14295;BME280;7231;59.370;18.016;2024-01-30T00:38:21;102350.31;;;3.06;100.00
14295;BME280;7231;59.370;18.016;2024-01-30T00:40:49;102350.06;;;3.03;100.00
14295;BME280;7231;59.370;18.016;2024-01-30T00:43:17;102345.28;;;2.98;100.00
14295;BME280;7231;59.370;18.016;2024-01-30T00:45:46;102346.72;;;2.94;100.00
14295;BME280;7231;59.370;18.016;2024-01-30T00:48:14;102341.81;;;2.87;100.00
14295;BME280;7231;59.370;18.016;2024-01-30T00:50:43;102348.16;;;2.90;100.00
14295;BME280;7231;59.370;18.016;2024-01-30T00:53:11;102328.22;;;2.79;100.00
14295;BME280;7231;59.370;18.016;2024-01-30T00:55:40;102350.63;;;2.89;100.00
14295;BME280;7231;59.370;18.016;2024-01-30T00:58:08;102351.53;;;2.89;100.00
14295;BME280;7231;59.370;18.016;2024-01-30T01:00:36;102336.13;;;2.81;100.00
14295;BME280;7231;59.370;18.016;2024-01-30T01:03:05;102304.19;;;2.60;100.00
14295;BME280;7231;59.370;18.016;2024-01-30T01:05:33;102361.50;;;2.85;100.00
14295;BME280;7231;59.370;18.016;2024-01-30T01:08:01;102358.53;;;2.80;100.00
14295;BME280;7231;59.370;18.016;2024-01-30T01:10:29;102360.72;;;2.76;100.00
14295;BME280;7231;59.370;18.016;2024-01-30T01:12:58;102356.22;;;2.73;100.00
14295;BME280;7231;59.370;18.016;2024-01-30T01:15:26;102348.97;;;2.69;100.00
14295;BME280;7231;59.370;18.016;2024-01-30T01:17:56;102348.81;;;2.68;100.00
14295;BME280;7231;59.370;18.016;2024-01-30T01:20:24;102351.16;;;2.65;100.00
14295;BME280;7231;59.370;18.016;2024-01-30T01:22:53;102354.19;;;2.59;100.00
14295;BME280;7231;59.370;18.016;2024-01-30T01:25:21;102329.84;;;2.47;100.00
14295;BME280;7231;59.370;18.016;2024-01-30T01:27:49;102346.41;;;2.49;100.00
14295;BME280;7231;59.370;18.016;2024-01-30T01:30:20;102347.06;;;2.46;100.00
14295;BME280;7231;59.370;18.016;2024-01-30T01:32:49;102339.03;;;2.43;100.00
14295;BME280;7231;59.370;18.016;2024-01-30T01:35:22;102350.03;;;2.41;100.00
14295;BME280;7231;59.370;18.016;2024-01-30T01:37:51;102347.97;;;2.37;100.00
14295;BME280;7231;59.370;18.016;2024-01-30T01:40:22;102353.91;;;2.36;100.00
14295;BME280;7231;59.370;18.016;2024-01-30T01:42:51;102344.84;;;2.31;100.00
14295;BME280;7231;59.370;18.016;2024-01-30T01:45:21;102321.03;;;2.14;100.00
14295;BME280;7231;59.370;18.016;2024-01-30T01:47:51;102306.03;;;2.00;100.00
14295;BME280;7231;59.370;18.016;2024-01-30T01:50:21;102347.44;;;2.20;100.00
14295;BME280;7231;59.370;18.016;2024-01-30T01:52:50;102356.75;;;2.18;100.00
14295;BME280;7231;59.370;18.016;2024-01-30T01:55:19;102356.34;;;2.14;100.00
14295;BME280;7231;59.370;18.016;2024-01-30T01:57:49;102341.34;;;2.10;100.00
14295;BME280;7231;59.370;18.016;2024-01-30T02:00:18;102328.53;;;2.01;100.00
14295;BME280;7231;59.370;18.016;2024-01-30T02:02:49;102328.78;;;1.94;100.00
14295;BME280;7231;59.370;18.016;2024-01-30T02:05:18;102342.88;;;1.98;100.00
14295;BME280;7231;59.370;18.016;2024-01-30T02:07:46;102353.88;;;1.95;100.00
14295;BME280;7231;59.370;18.016;2024-01-30T02:10:15;102330.03;;;1.79;100.00
14295;BME280;7231;59.370;18.016;2024-01-30T02:12:43;102352.81;;;1.93;100.00
14295;BME280;7231;59.370;18.016;2024-01-30T02:15:13;102317.25;;;1.80;100.00
14295;BME280;7231;59.370;18.016;2024-01-30T02:17:42;102340.16;;;1.96;100.00
14295;BME280;7231;59.370;18.016;2024-01-30T02:20:11;102329.81;;;1.96;100.00
14295;BME280;7231;59.370;18.016;2024-01-30T02:22:42;102267.28;;;1.61;100.00
14295;BME280;7231;59.370;18.016;2024-01-30T02:25:12;102330.34;;;2.02;100.00
14295;BME280;7231;59.370;18.016;2024-01-30T02:27:40;102327.25;;;2.06;100.00
14295;BME280;7231;59.370;18.016;2024-01-30T02:30:09;102326.47;;;2.07;100.00
14295;BME280;7231;59.370;18.016;2024-01-30T02:32:38;102303.69;;;1.93;100.00
14295;BME280;7231;59.370;18.016;2024-01-30T02:35:06;102325.69;;;2.08;100.00
14295;BME280;7231;59.370;18.016;2024-01-30T02:37:34;102311.84;;;1.98;100.00
14295;BME280;7231;59.370;18.016;2024-01-30T02:40:05;102337.59;;;2.06;100.00
14295;BME280;7231;59.370;18.016;2024-01-30T02:42:34;102335.13;;;2.08;100.00
14295;BME280;7231;59.370;18.016;2024-01-30T02:45:02;102334.50;;;2.10;100.00
14295;BME280;7231;59.370;18.016;2024-01-30T02:47:30;102333.84;;;2.13;100.00
14295;BME280;7231;59.370;18.016;2024-01-30T02:49:58;102324.66;;;2.06;100.00
14295;BME280;7231;59.370;18.016;2024-01-30T02:52:27;102286.47;;;1.83;100.00
14295;BME280;7231;59.370;18.016;2024-01-30T02:54:55;102319.47;;;2.06;100.00
14295;BME280;7231;59.370;18.016;2024-01-30T02:57:24;102336.44;;;2.23;100.00
14295;BME280;7231;59.370;18.016;2024-01-30T02:59:52;102345.75;;;2.31;100.00
14295;BME280;7231;59.370;18.016;2024-01-30T03:02:21;102338.13;;;2.33;100.00
14295;BME280;7231;59.370;18.016;2024-01-30T03:04:49;102343.56;;;2.36;100.00
14295;BME280;7231;59.370;18.016;2024-01-30T03:07:17;102340.34;;;2.38;100.00
14295;BME280;7231;59.370;18.016;2024-01-30T03:09:45;102336.84;;;2.38;100.00
14295;BME280;7231;59.370;18.016;2024-01-30T03:12:15;102311.09;;;2.29;100.00
14295;BME280;7231;59.370;18.016;2024-01-30T03:15:00;102337.63;;;2.47;100.00
14295;BME280;7231;59.370;18.016;2024-01-30T03:17:28;102335.03;;;2.47;100.00
14295;BME280;7231;59.370;18.016;2024-01-30T03:19:56;102306.94;;;2.31;100.00
14295;BME280;7231;59.370;18.016;2024-01-30T03:22:25;102331.28;;;2.43;100.00
14295;BME280;7231;59.370;18.016;2024-01-30T03:24:53;102345.38;;;2.47;100.00
14295;BME280;7231;59.370;18.016;2024-01-30T03:27:21;102325.44;;;2.36;100.00
14295;BME280;7231;59.370;18.016;2024-01-30T03:29:49;102338.91;;;2.42;100.00
14295;BME280;7231;59.370;18.016;2024-01-30T03:32:18;102337.47;;;2.35;100.00
14295;BME280;7231;59.370;18.016;2024-01-30T03:34:46;102359.63;;;2.42;100.00
14295;BME280;7231;59.370;18.016;2024-01-30T03:37:15;102361.16;;;2.40;100.00
14295;BME280;7231;59.370;18.016;2024-01-30T03:39:43;102347.56;;;2.32;100.00
14295;BME280;7231;59.370;18.016;2024-01-30T03:42:11;102352.75;;;2.32;100.00
14295;BME280;7231;59.370;18.016;2024-01-30T03:44:39;102357.28;;;2.35;100.00
14295;BME280;7231;59.370;18.016;2024-01-30T03:47:07;102331.66;;;2.17;100.00
14295;BME280;7231;59.370;18.016;2024-01-30T03:49:37;102358.84;;;2.33;100.00
14295;BME280;7231;59.370;18.016;2024-01-30T03:52:05;102358.06;;;2.34;100.00
14295;BME280;7231;59.370;18.016;2024-01-30T03:54:33;102353.66;;;2.33;100.00
14295;BME280;7231;59.370;18.016;2024-01-30T03:57:01;102317.41;;;2.12;100.00
14295;BME280;7231;59.370;18.016;2024-01-30T03:59:30;102345.63;;;2.30;100.00
14295;BME280;7231;59.370;18.016;2024-01-30T04:01:58;102353.28;;;2.28;100.00
14295;BME280;7231;59.370;18.016;2024-01-30T04:04:26;102355.59;;;2.25;100.00
14295;BME280;7231;59.370;18.016;2024-01-30T04:06:56;102346.28;;;2.17;100.00
14295;BME280;7231;59.370;18.016;2024-01-30T04:09:24;102355.97;;;2.19;100.00
14295;BME280;7231;59.370;18.016;2024-01-30T04:11:53;102362.84;;;2.19;100.00
14295;BME280;7231;59.370;18.016;2024-01-30T04:14:21;102368.00;;;2.19;100.00
14295;BME280;7231;59.370;18.016;2024-01-30T04:16:49;102369.16;;;2.12;100.00
14295;BME280;7231;59.370;18.016;2024-01-30T04:19:17;102366.19;;;2.08;100.00
14295;BME280;7231;59.370;18.016;2024-01-30T04:21:46;102356.34;;;2.04;100.00
14295;BME280;7231;59.370;18.016;2024-01-30T04:24:15;102367.19;;;2.00;100.00
14295;BME280;7231;59.370;18.016;2024-01-30T04:26:45;102368.34;;;1.93;100.00
14295;BME280;7231;59.370;18.016;2024-01-30T04:29:13;102359.28;;;1.88;100.00
14295;BME280;7231;59.370;18.016;2024-01-30T04:31:41;102366.13;;;1.87;100.00
14295;BME280;7231;59.370;18.016;2024-01-30T04:34:09;102368.47;;;1.84;100.00
14295;BME280;7231;59.370;18.016;2024-01-30T04:36:37;102372.59;;;1.82;100.00
14295;BME280;7231;59.370;18.016;2024-01-30T04:39:05;102369.88;;;1.81;100.00
14295;BME280;7231;59.370;18.016;2024-01-30T04:41:37;102287.47;;;1.26;100.00
14295;BME280;7231;59.370;18.016;2024-01-30T04:44:05;102361.72;;;1.76;100.00
14295;BME280;7231;59.370;18.016;2024-01-30T04:46:33;102363.91;;;1.72;100.00
14295;BME280;7231;59.370;18.016;2024-01-30T04:49:01;102366.97;;;1.68;100.00
14295;BME280;7231;59.370;18.016;2024-01-30T04:51:30;102357.00;;;1.62;100.00
14295;BME280;7231;59.370;18.016;2024-01-30T04:53:58;102357.41;;;1.67;100.00
14295;BME280;7231;59.370;18.016;2024-01-30T04:56:26;102354.03;;;1.57;100.00
14295;BME280;7231;59.370;18.016;2024-01-30T04:58:56;102357.66;;;1.59;100.00
14295;BME280;7231;59.370;18.016;2024-01-30T05:01:23;102357.50;;;1.58;100.00
14295;BME280;7231;59.370;18.016;2024-01-30T05:03:51;102352.22;;;1.56;100.00
14295;BME280;7231;59.370;18.016;2024-01-30T05:06:25;102350.41;;;1.55;100.00
14295;BME280;7231;59.370;18.016;2024-01-30T05:08:54;102296.53;;;1.31;100.00
14295;BME280;7231;59.370;18.016;2024-01-30T05:11:22;102314.81;;;1.43;100.00
14295;BME280;7231;59.370;18.016;2024-01-30T05:13:50;102347.66;;;1.54;100.00
14295;BME280;7231;59.370;18.016;2024-01-30T05:16:20;102339.25;;;1.46;100.00
14295;BME280;7231;59.370;18.016;2024-01-30T05:18:48;102342.22;;;1.51;100.00
14295;BME280;7231;59.370;18.016;2024-01-30T05:21:16;102340.41;;;1.50;100.00
14295;BME280;7231;59.370;18.016;2024-01-30T05:23:45;102340.69;;;1.53;100.00
14295;BME280;7231;59.370;18.016;2024-01-30T05:26:13;102357.50;;;1.58;100.00
14295;BME280;7231;59.370;18.016;2024-01-30T05:28:42;102344.81;;;1.51;100.00
14295;BME280;7231;59.370;18.016;2024-01-30T05:31:11;102369.53;;;1.57;100.00
14295;BME280;7231;59.370;18.016;2024-01-30T05:33:40;102336.38;;;1.43;100.00
14295;BME280;7231;59.370;18.016;2024-01-30T05:36:11;102371.47;;;1.60;100.00
14295;BME280;7231;59.370;18.016;2024-01-30T05:38:40;102365.53;;;1.61;100.00
14295;BME280;7231;59.370;18.016;2024-01-30T05:41:08;102354.94;;;1.58;100.00
14295;BME280;7231;59.370;18.016;2024-01-30T05:43:36;102354.44;;;1.62;100.00
14295;BME280;7231;59.370;18.016;2024-01-30T05:46:04;102364.75;;;1.62;100.00
14295;BME280;7231;59.370;18.016;2024-01-30T05:48:34;102372.25;;;1.59;100.00
14295;BME280;7231;59.370;18.016;2024-01-30T05:51:04;102359.69;;;1.53;100.00
14295;BME280;7231;59.370;18.016;2024-01-30T05:53:32;102319.53;;;1.28;100.00
14295;BME280;7231;59.370;18.016;2024-01-30T05:56:02;102351.94;;;1.53;100.00
14295;BME280;7231;59.370;18.016;2024-01-30T05:58:30;102321.47;;;1.30;100.00
14295;BME280;7231;59.370;18.016;2024-01-30T06:00:58;102341.41;;;1.42;100.00
14295;BME280;7231;59.370;18.016;2024-01-30T06:03:27;102359.16;;;1.47;100.00
14295;BME280;7231;59.370;18.016;2024-01-30T06:05:55;102355.25;;;1.42;100.00
14295;BME280;7231;59.370;18.016;2024-01-30T06:08:24;102359.78;;;1.45;100.00
14295;BME280;7231;59.370;18.016;2024-01-30T06:10:52;102358.09;;;1.45;100.00
14295;BME280;7231;59.370;18.016;2024-01-30T06:13:21;102359.91;;;1.46;100.00
14295;BME280;7231;59.370;18.016;2024-01-30T06:15:49;102350.63;;;1.48;100.00
14295;BME280;7231;59.370;18.016;2024-01-30T06:18:17;102320.97;;;1.35;100.00
14295;BME280;7231;59.370;18.016;2024-01-30T06:20:45;102335.88;;;1.47;100.00
14295;BME280;7231;59.370;18.016;2024-01-30T06:23:13;102334.97;;;1.47;100.00
14295;BME280;7231;59.370;18.016;2024-01-30T06:25:43;102339.25;;;1.46;100.00
14295;BME280;7231;59.370;18.016;2024-01-30T06:28:11;102347.78;;;1.45;100.00
14295;BME280;7231;59.370;18.016;2024-01-30T06:30:39;102347.50;;;1.42;100.00
14295;BME280;7231;59.370;18.016;2024-01-30T06:33:07;102347.50;;;1.42;100.00
14295;BME280;7231;59.370;18.016;2024-01-30T06:35:35;102336.22;;;1.32;100.00
14295;BME280;7231;59.370;18.016;2024-01-30T06:38:10;102354.84;;;1.38;100.00
14295;BME280;7231;59.370;18.016;2024-01-30T06:40:40;102346.13;;;1.27;100.00
14295;BME280;7231;59.370;18.016;2024-01-30T06:43:09;102341.59;;;1.24;100.00
14295;BME280;7231;59.370;18.016;2024-01-30T06:45:38;102308.97;;;1.06;100.00
14295;BME280;7231;59.370;18.016;2024-01-30T06:48:07;102367.63;;;1.36;100.00
14295;BME280;7231;59.370;18.016;2024-01-30T06:50:35;102359.88;;;1.36;100.00
14295;BME280;7231;59.370;18.016;2024-01-30T06:53:03;102353.94;;;1.37;100.00
14295;BME280;7231;59.370;18.016;2024-01-30T06:55:32;102350.84;;;1.41;100.00
14295;BME280;7231;59.370;18.016;2024-01-30T06:58:00;102353.72;;;1.44;100.00
14295;BME280;7231;59.370;18.016;2024-01-30T07:00:29;102357.34;;;1.46;100.00
14295;BME280;7231;59.370;18.016;2024-01-30T07:02:58;102352.44;;;1.49;100.00
14295;BME280;7231;59.370;18.016;2024-01-30T07:05:26;102341.81;;;1.46;100.00
14295;BME280;7231;59.370;18.016;2024-01-30T07:07:54;102344.69;;;1.49;100.00
14295;BME280;7231;59.370;18.016;2024-01-30T07:10:22;102355.56;;;1.55;100.00
14295;BME280;7231;59.370;18.016;2024-01-30T07:12:51;102356.75;;;1.59;100.00
14295;BME280;7231;59.370;18.016;2024-01-30T07:15:19;102331.00;;;1.50;100.00
14295;BME280;7231;59.370;18.016;2024-01-30T07:17:48;102346.81;;;1.63;100.00
14295;BME280;7231;59.370;18.016;2024-01-30T07:20:17;102316.53;;;1.52;100.00
14295;BME280;7231;59.370;18.016;2024-01-30T07:22:47;102340.34;;;1.69;100.00
14295;BME280;7231;59.370;18.016;2024-01-30T07:25:15;102330.00;;;1.69;100.00
14295;BME280;7231;59.370;18.016;2024-01-30T07:27:44;102324.06;;;1.70;100.00
14295;BME280;7231;59.370;18.016;2024-01-30T07:30:13;102329.50;;;1.73;100.00
14295;BME280;7231;59.370;18.016;2024-01-30T07:32:41;102325.25;;;1.73;100.00
14295;BME280;7231;59.370;18.016;2024-01-30T07:35:10;102325.09;;;1.72;100.00
14295;BME280;7231;59.370;18.016;2024-01-30T07:37:39;102336.50;;;1.74;100.00
14295;BME280;7231;59.370;18.016;2024-01-30T07:40:08;102313.56;;;1.58;100.00
14295;BME280;7231;59.370;18.016;2024-01-30T07:42:36;102347.34;;;1.70;100.00
14295;BME280;7231;59.370;18.016;2024-01-30T07:45:05;102335.94;;;1.68;100.00
14295;BME280;7231;59.370;18.016;2024-01-30T07:47:33;102335.69;;;1.65;100.00
14295;BME280;7231;59.370;18.016;2024-01-30T07:50:02;102343.22;;;1.72;100.00
14295;BME280;7231;59.370;18.016;2024-01-30T07:52:32;102333.13;;;1.75;100.00
14295;BME280;7231;59.370;18.016;2024-01-30T07:55:00;102340.25;;;1.77;100.00
14295;BME280;7231;59.370;18.016;2024-01-30T07:57:30;102335.22;;;1.79;100.00
14295;BME280;7231;59.370;18.016;2024-01-30T07:59:59;102334.69;;;1.83;100.00
14295;BME280;7231;59.370;18.016;2024-01-30T08:02:27;102340.13;;;1.86;100.00
14295;BME280;7231;59.370;18.016;2024-01-30T08:04:55;102308.72;;;1.81;100.00
14295;BME280;7231;59.370;18.016;2024-01-30T08:07:23;102314.03;;;1.93;100.00
14295;BME280;7231;59.370;18.016;2024-01-30T08:09:52;102319.59;;;1.98;100.00
14295;BME280;7231;59.370;18.016;2024-01-30T08:12:21;102316.09;;;1.97;100.00
14295;BME280;7231;59.370;18.016;2024-01-30T08:14:49;102314.56;;;1.99;100.00
14295;BME280;7231;59.370;18.016;2024-01-30T08:17:17;102312.88;;;2.00;100.00
14295;BME280;7231;59.370;18.016;2024-01-30T08:19:45;102318.31;;;2.03;100.00
14295;BME280;7231;59.370;18.016;2024-01-30T08:22:13;102312.50;;;2.05;100.00
14295;BME280;7231;59.370;18.016;2024-01-30T08:24:42;102298.66;;;2.05;100.00
14295;BME280;7231;59.370;18.016;2024-01-30T08:27:11;102308.88;;;2.13;100.00
14295;BME280;7231;59.370;18.016;2024-01-30T08:29:40;102298.00;;;2.17;100.00
14295;BME280;7231;59.370;18.016;2024-01-30T08:32:08;102296.59;;;2.21;100.00
14295;BME280;7231;59.370;18.016;2024-01-30T08:34:36;102282.63;;;2.19;100.00
14295;BME280;7231;59.370;18.016;2024-01-30T08:37:04;102297.09;;;2.27;100.00
14295;BME280;7231;59.370;18.016;2024-01-30T08:39:32;102287.28;;;2.23;100.00
14295;BME280;7231;59.370;18.016;2024-01-30T08:42:01;102291.66;;;2.14;100.00
14295;BME280;7231;59.370;18.016;2024-01-30T08:44:30;102240.81;;;1.94;100.00
14295;BME280;7231;59.370;18.016;2024-01-30T08:46:58;102302.81;;;2.33;100.00
14295;BME280;7231;59.370;18.016;2024-01-30T08:49:27;102307.59;;;2.39;100.00
14295;BME280;7231;59.370;18.016;2024-01-30T08:51:56;102302.66;;;2.42;100.00
14295;BME280;7231;59.370;18.016;2024-01-30T08:54:24;102258.56;;;2.10;100.00
14295;BME280;7231;59.370;18.016;2024-01-30T08:56:52;102303.81;;;2.45;100.00
14295;BME280;7231;59.370;18.016;2024-01-30T08:59:23;102260.09;;;2.18;100.00
14295;BME280;7231;59.370;18.016;2024-01-30T09:01:52;102304.09;;;2.48;100.00
14295;BME280;7231;59.370;18.016;2024-01-30T09:04:37;102279.25;;;2.40;100.00
14295;BME280;7231;59.370;18.016;2024-01-30T09:07:07;102308.69;;;2.63;100.00
14295;BME280;7231;59.370;18.016;2024-01-30T09:09:37;102276.50;;;2.49;100.00
14295;BME280;7231;59.370;18.016;2024-01-30T09:12:07;102261.75;;;2.48;100.00
14295;BME280;7231;59.370;18.016;2024-01-30T09:14:37;102309.44;;;2.82;100.00
14295;BME280;7231;59.370;18.016;2024-01-30T09:17:06;102303.06;;;2.88;100.00
14295;BME280;7231;59.370;18.016;2024-01-30T09:19:35;102270.97;;;2.76;100.00
14295;BME280;7231;59.370;18.016;2024-01-30T09:22:04;102284.41;;;2.92;100.00
14295;BME280;7231;59.370;18.016;2024-01-30T09:24:32;102289.09;;;2.86;100.00
14295;BME280;7231;59.370;18.016;2024-01-30T09:27:00;102291.66;;;2.97;100.00
14295;BME280;7231;59.370;18.016;2024-01-30T09:29:29;102284.25;;;3.01;100.00
14295;BME280;7231;59.370;18.016;2024-01-30T09:31:57;102289.81;;;3.06;100.00
14295;BME280;7231;59.370;18.016;2024-01-30T09:34:27;102287.47;;;3.09;100.00
14295;BME280;7231;59.370;18.016;2024-01-30T09:36:55;102285.25;;;3.13;100.00
14295;BME280;7231;59.370;18.016;2024-01-30T09:39:23;102271.25;;;3.11;100.00
14295;BME280;7231;59.370;18.016;2024-01-30T09:42:02;102270.44;;;3.22;100.00
14295;BME280;7231;59.370;18.016;2024-01-30T09:44:34;102267.06;;;3.23;100.00
14295;BME280;7231;59.370;18.016;2024-01-30T09:47:03;102273.16;;;3.24;100.00
14295;BME280;7231;59.370;18.016;2024-01-30T09:49:34;102267.72;;;3.21;100.00
14295;BME280;7231;59.370;18.016;2024-01-30T09:52:04;102266.94;;;3.22;100.00
14295;BME280;7231;59.370;18.016;2024-01-30T09:54:34;102260.19;;;3.24;100.00
14295;BME280;7231;59.370;18.016;2024-01-30T09:57:03;102259.66;;;3.28;100.00
14295;BME280;7231;59.370;18.016;2024-01-30T09:59:31;102210.25;;;3.05;100.00
14295;BME280;7231;59.370;18.016;2024-01-30T10:02:00;102252.66;;;3.27;100.00
14295;BME280;7231;59.370;18.016;2024-01-30T10:04:31;102270.81;;;3.27;100.00
14295;BME280;7231;59.370;18.016;2024-01-30T10:07:01;102263.28;;;3.30;100.00
14295;BME280;7231;59.370;18.016;2024-01-30T10:09:32;102269.13;;;3.28;100.00
14295;BME280;7231;59.370;18.016;2024-01-30T10:12:02;102263.94;;;3.28;100.00
14295;BME280;7231;59.370;18.016;2024-01-30T10:14:31;102260.69;;;3.30;100.00
14295;BME280;7231;59.370;18.016;2024-01-30T10:17:00;102238.84;;;3.16;100.00
14295;BME280;7231;59.370;18.016;2024-01-30T10:19:38;102260.25;;;3.36;100.00
14295;BME280;7231;59.370;18.016;2024-01-30T10:22:09;102257.66;;;3.36;100.00
14295;BME280;7231;59.370;18.016;2024-01-30T10:24:37;102254.41;;;3.38;100.00
14295;BME280;7231;59.370;18.016;2024-01-30T10:27:05;102244.81;;;3.37;100.00
14295;BME280;7231;59.370;18.016;2024-01-30T10:29:34;102241.69;;;3.41;100.00
14295;BME280;7231;59.370;18.016;2024-01-30T10:32:04;102241.50;;;3.50;100.00
14295;BME280;7231;59.370;18.016;2024-01-30T10:34:32;102214.63;;;3.38;100.00
14295;BME280;7231;59.370;18.016;2024-01-30T10:37:08;102213.41;;;3.44;100.00
14295;BME280;7231;59.370;18.016;2024-01-30T10:39:40;102229.81;;;3.55;100.00
14295;BME280;7231;59.370;18.016;2024-01-30T10:42:12;102244.59;;;3.56;100.00
14295;BME280;7231;59.370;18.016;2024-01-30T10:44:47;102237.94;;;3.59;100.00
14295;BME280;7231;59.370;18.016;2024-01-30T10:47:20;102226.31;;;3.54;100.00
14295;BME280;7231;59.370;18.016;2024-01-30T10:49:51;102220.09;;;3.52;100.00
14295;BME280;7231;59.370;18.016;2024-01-30T10:52:23;102132.63;;;3.06;100.00
14295;BME280;7231;59.370;18.016;2024-01-30T10:54:53;102037.25;;;2.57;100.00
14295;BME280;7231;59.370;18.016;2024-01-30T10:57:23;102046.25;;;2.62;100.00
14295;BME280;7231;59.370;18.016;2024-01-30T10:59:54;102188.97;;;3.52;100.00
14295;BME280;7231;59.370;18.016;2024-01-30T11:02:24;102207.06;;;3.63;100.00
14295;BME280;7231;59.370;18.016;2024-01-30T11:04:56;102202.00;;;3.64;100.00
14295;BME280;7231;59.370;18.016;2024-01-30T11:07:28;102199.41;;;3.64;100.00
14295;BME280;7231;59.370;18.016;2024-01-30T11:10:00;102190.94;;;3.67;100.00
14295;BME280;7231;59.370;18.016;2024-01-30T11:12:31;102179.78;;;3.68;100.00
14295;BME280;7231;59.370;18.016;2024-01-30T11:15:05;102181.28;;;3.76;100.00
14295;BME280;7231;59.370;18.016;2024-01-30T11:17:43;102171.50;;;3.83;100.00
14295;BME280;7231;59.370;18.016;2024-01-30T11:20:12;102185.75;;;4.00;100.00
14295;BME280;7231;59.370;18.016;2024-01-30T11:22:44;102178.88;;;4.12;100.00
14295;BME280;7231;59.370;18.016;2024-01-30T11:25:14;102175.97;;;4.19;100.00
14295;BME280;7231;59.370;18.016;2024-01-30T11:27:43;102164.66;;;4.19;100.00
14295;BME280;7231;59.370;18.016;2024-01-30T11:30:21;102158.00;;;4.22;100.00
14295;BME280;7231;59.370;18.016;2024-01-30T11:33:00;102162.97;;;4.31;100.00
14295;BME280;7231;59.370;18.016;2024-01-30T11:35:32;102155.53;;;4.36;100.00
14295;BME280;7231;59.370;18.016;2024-01-30T11:38:03;102159.47;;;4.42;100.00
14295;BME280;7231;59.370;18.016;2024-01-30T11:40:32;102144.91;;;4.44;100.00
14295;BME280;7231;59.370;18.016;2024-01-30T11:43:02;102144.00;;;4.44;100.00
14295;BME280;7231;59.370;18.016;2024-01-30T11:45:32;102150.44;;;4.49;100.00
14295;BME280;7231;59.370;18.016;2024-01-30T11:48:00;102143.34;;;4.46;100.00
14295;BME280;7231;59.370;18.016;2024-01-30T11:50:32;102137.00;;;4.43;100.00
14295;BME280;7231;59.370;18.016;2024-01-30T11:53:02;102143.66;;;4.51;100.00
14295;BME280;7231;59.370;18.016;2024-01-30T11:55:31;102138.59;;;4.52;100.00
14295;BME280;7231;59.370;18.016;2024-01-30T11:58:01;102139.50;;;4.53;100.00
14295;BME280;7231;59.370;18.016;2024-01-30T12:00:31;102108.00;;;4.37;100.00
14295;BME280;7231;59.370;18.016;2024-01-30T12:03:01;102118.25;;;4.47;100.00
14295;BME280;7231;59.370;18.016;2024-01-30T12:05:30;102129.66;;;4.61;100.00
14295;BME280;7231;59.370;18.016;2024-01-30T12:07:59;102113.97;;;4.59;100.00
14295;BME280;7231;59.370;18.016;2024-01-30T12:10:30;102134.94;;;4.74;100.00
14295;BME280;7231;59.370;18.016;2024-01-30T12:12:58;102116.53;;;4.71;100.00
14295;BME280;7231;59.370;18.016;2024-01-30T12:15:27;102121.72;;;4.82;100.00
14295;BME280;7231;59.370;18.016;2024-01-30T12:18:04;102127.91;;;4.84;100.00
14295;BME280;7231;59.370;18.016;2024-01-30T12:20:32;102127.13;;;4.85;100.00
14295;BME280;7231;59.370;18.016;2024-01-30T12:23:00;102126.44;;;4.88;100.00
14295;BME280;7231;59.370;18.016;2024-01-30T12:25:30;102124.97;;;4.92;100.00
14295;BME280;7231;59.370;18.016;2024-01-30T12:27:59;102098.75;;;4.88;100.00
14295;BME280;7231;59.370;18.016;2024-01-30T12:30:27;102106.19;;;4.96;100.00
14295;BME280;7231;59.370;18.016;2024-01-30T12:32:56;102101.53;;;5.03;100.00
14295;BME280;7231;59.370;18.016;2024-01-30T12:35:25;102106.03;;;5.06;100.00
14295;BME280;7231;59.370;18.016;2024-01-30T12:37:58;102103.00;;;5.00;100.00
14295;BME280;7231;59.370;18.016;2024-01-30T12:40:27;102101.69;;;4.93;100.00
14295;BME280;7231;59.370;18.016;2024-01-30T12:42:57;102095.84;;;4.84;100.00
14295;BME280;7231;59.370;18.016;2024-01-30T12:45:25;102090.88;;;4.75;100.00
14295;BME280;7231;59.370;18.016;2024-01-30T12:47:54;102090.34;;;4.68;100.00
14295;BME280;7231;59.370;18.016;2024-01-30T12:50:22;102084.59;;;4.60;100.00
14295;BME280;7231;59.370;18.016;2024-01-30T12:52:50;102085.97;;;4.55;100.00
14295;BME280;7231;59.370;18.016;2024-01-30T12:55:19;102075.47;;;4.42;100.00
14295;BME280;7231;59.370;18.016;2024-01-30T12:57:47;102090.50;;;4.46;100.00
14295;BME280;7231;59.370;18.016;2024-01-30T13:00:17;102076.06;;;4.38;100.00